sensor_id;sensor_type;location;lat;lon;timestamp;P1;durP1;ratioP1;P2;durP2;ratioP2
12990;SDS011;6560;57.692;11.958;2023-09-18T00:01:50;4.10;;;3.70;;
12990;SDS011;6560;57.692;11.958;2023-09-18T00:04:16;5.15;;;3.75;;
12990;SDS011;6560;57.692;11.958;2023-09-18T00:06:41;4.60;;;3.67;;
12990;SDS011;6560;57.692;11.958;2023-09-18T00:09:07;3.95;;;3.55;;
12990;SDS011;6560;57.692;11.958;2023-09-18T00:11:36;4.75;;;3.58;;
12990;SDS011;6560;57.692;11.958;2023-09-18T00:14:03;5.32;;;4.53;;
12990;SDS011;6560;57.692;11.958;2023-09-18T00:16:28;3.78;;;3.47;;
12990;SDS011;6560;57.692;11.958;2023-09-18T00:18:54;4.80;;;4.30;;
12990;SDS011;6560;57.692;11.958;2023-09-18T00:21:20;4.22;;;3.72;;
12990;SDS011;6560;57.692;11.958;2023-09-18T00:23:45;4.22;;;3.30;;
12990;SDS011;6560;57.692;11.958;2023-09-18T00:26:14;4.95;;;4.50;;
12990;SDS011;6560;57.692;11.958;2023-09-18T00:28:39;4.40;;;4.00;;
12990;SDS011;6560;57.692;11.958;2023-09-18T00:31:06;3.80;;;3.50;;
12990;SDS011;6560;57.692;11.958;2023-09-18T00:33:31;3.80;;;2.90;;
12990;SDS011;6560;57.692;11.958;2023-09-18T00:35:56;4.13;;;3.75;;
12990;SDS011;6560;57.692;11.958;2023-09-18T00:38:22;4.15;;;3.28;;
12990;SDS011;6560;57.692;11.958;2023-09-18T00:40:48;3.97;;;3.45;;
12990;SDS011;6560;57.692;11.958;2023-09-18T00:43:14;3.92;;;3.33;;
12990;SDS011;6560;57.692;11.958;2023-09-18T00:45:44;4.68;;;3.67;;
12990;SDS011;6560;57.692;11.958;2023-09-18T00:48:11;3.95;;;3.63;;
12990;SDS011;6560;57.692;11.958;2023-09-18T00:50:37;3.60;;;3.28;;
12990;SDS011;6560;57.692;11.958;2023-09-18T00:53:03;3.38;;;3.08;;
12990;SDS011;6560;57.692;11.958;2023-09-18T00:55:29;3.33;;;3.00;;
12990;SDS011;6560;57.692;11.958;2023-09-18T00:57:55;3.60;;;3.30;;
12990;SDS011;6560;57.692;11.958;2023-09-18T01:00:21;3.92;;;3.50;;
12990;SDS011;6560;57.692;11.958;2023-09-18T01:02:47;6.07;;;3.15;;
12990;SDS011;6560;57.692;11.958;2023-09-18T01:05:12;4.22;;;3.08;;
12990;SDS011;6560;57.692;11.958;2023-09-18T01:07:39;3.65;;;3.35;;
12990;SDS011;6560;57.692;11.958;2023-09-18T01:10:06;3.22;;;2.97;;
12990;SDS011;6560;57.692;11.958;2023-09-18T01:12:37;3.53;;;3.22;;
12990;SDS011;6560;57.692;11.958;2023-09-18T01:17:34;4.68;;;3.80;;
12990;SDS011;6560;57.692;11.958;2023-09-18T01:19:59;3.42;;;2.70;;
12990;SDS011;6560;57.692;11.958;2023-09-18T01:22:28;3.53;;;3.17;;
12990;SDS011;6560;57.692;11.958;2023-09-18T01:24:54;5.13;;;3.30;;
12990;SDS011;6560;57.692;11.958;2023-09-18T01:27:19;3.65;;;3.35;;
12990;SDS011;6560;57.692;11.958;2023-09-18T01:29:48;3.83;;;3.28;;
12990;SDS011;6560;57.692;11.958;2023-09-18T01:32:15;3.40;;;3.10;;
12990;SDS011;6560;57.692;11.958;2023-09-18T01:34:42;3.50;;;3.22;;
12990;SDS011;6560;57.692;11.958;2023-09-18T01:37:10;4.38;;;3.05;;
12990;SDS011;6560;57.692;11.958;2023-09-18T01:39:36;3.92;;;2.75;;
12990;SDS011;6560;57.692;11.958;2023-09-18T01:42:03;4.03;;;3.70;;
12990;SDS011;6560;57.692;11.958;2023-09-18T01:44:34;2.90;;;2.70;;
12990;SDS011;6560;57.692;11.958;2023-09-18T01:47:04;3.78;;;3.38;;
12990;SDS011;6560;57.692;11.958;2023-09-18T01:49:33;4.00;;;3.13;;
12990;SDS011;6560;57.692;11.958;2023-09-18T01:51:58;2.45;;;2.17;;
12990;SDS011;6560;57.692;11.958;2023-09-18T01:54:24;4.35;;;2.92;;
12990;SDS011;6560;57.692;11.958;2023-09-18T01:56:51;7.65;;;3.00;;
12990;SDS011;6560;57.692;11.958;2023-09-18T01:59:19;3.63;;;3.33;;
12990;SDS011;6560;57.692;11.958;2023-09-18T02:01:44;3.28;;;2.70;;
12990;SDS011;6560;57.692;11.958;2023-09-18T02:04:09;4.78;;;3.38;;
12990;SDS011;6560;57.692;11.958;2023-09-18T02:06:35;4.60;;;2.85;;
12990;SDS011;6560;57.692;11.958;2023-09-18T02:09:00;3.83;;;2.90;;
12990;SDS011;6560;57.692;11.958;2023-09-18T02:11:26;5.15;;;2.78;;
12990;SDS011;6560;57.692;11.958;2023-09-18T02:13:52;2.97;;;2.33;;
12990;SDS011;6560;57.692;11.958;2023-09-18T02:16:17;2.95;;;2.75;;
12990;SDS011;6560;57.692;11.958;2023-09-18T02:18:48;2.83;;;2.60;;
12990;SDS011;6560;57.692;11.958;2023-09-18T02:21:19;3.05;;;2.78;;
12990;SDS011;6560;57.692;11.958;2023-09-18T02:23:45;3.72;;;2.72;;
12990;SDS011;6560;57.692;11.958;2023-09-18T02:26:10;2.90;;;2.70;;
12990;SDS011;6560;57.692;11.958;2023-09-18T02:28:36;5.30;;;2.83;;
12990;SDS011;6560;57.692;11.958;2023-09-18T02:31:01;3.53;;;3.22;;
12990;SDS011;6560;57.692;11.958;2023-09-18T02:33:28;2.80;;;2.60;;
12990;SDS011;6560;57.692;11.958;2023-09-18T02:35:53;3.20;;;2.90;;
12990;SDS011;6560;57.692;11.958;2023-09-18T02:38:19;3.58;;;3.20;;
12990;SDS011;6560;57.692;11.958;2023-09-18T02:40:45;2.95;;;2.75;;
12990;SDS011;6560;57.692;11.958;2023-09-18T02:43:11;3.40;;;3.10;;
12990;SDS011;6560;57.692;11.958;2023-09-18T02:45:36;3.17;;;2.72;;
12990;SDS011;6560;57.692;11.958;2023-09-18T02:48:01;4.55;;;3.10;;
12990;SDS011;6560;57.692;11.958;2023-09-18T02:50:28;3.10;;;2.80;;
12990;SDS011;6560;57.692;11.958;2023-09-18T02:52:54;2.67;;;2.47;;
12990;SDS011;6560;57.692;11.958;2023-09-18T02:55:19;3.85;;;3.08;;
12990;SDS011;6560;57.692;11.958;2023-09-18T02:57:45;4.63;;;3.10;;
12990;SDS011;6560;57.692;11.958;2023-09-18T03:00:10;3.05;;;2.70;;
12990;SDS011;6560;57.692;11.958;2023-09-18T03:02:35;3.17;;;2.88;;
12990;SDS011;6560;57.692;11.958;2023-09-18T03:05:01;4.45;;;3.03;;
12990;SDS011;6560;57.692;11.958;2023-09-18T03:07:28;3.33;;;2.80;;
12990;SDS011;6560;57.692;11.958;2023-09-18T03:09:57;4.07;;;2.90;;
12990;SDS011;6560;57.692;11.958;2023-09-18T03:12:22;5.65;;;2.60;;
12990;SDS011;6560;57.692;11.958;2023-09-18T03:14:48;3.15;;;2.67;;
12990;SDS011;6560;57.692;11.958;2023-09-18T03:17:14;2.85;;;2.65;;
12990;SDS011;6560;57.692;11.958;2023-09-18T03:19:39;3.25;;;2.50;;
12990;SDS011;6560;57.692;11.958;2023-09-18T03:22:04;4.57;;;2.90;;
12990;SDS011;6560;57.692;11.958;2023-09-18T03:24:29;3.58;;;2.80;;
12990;SDS011;6560;57.692;11.958;2023-09-18T03:26:55;3.33;;;2.42;;
12990;SDS011;6560;57.692;11.958;2023-09-18T03:29:20;3.50;;;3.05;;
12990;SDS011;6560;57.692;11.958;2023-09-18T03:31:45;3.08;;;2.83;;
12990;SDS011;6560;57.692;11.958;2023-09-18T03:34:11;3.17;;;2.60;;
12990;SDS011;6560;57.692;11.958;2023-09-18T03:36:36;4.65;;;3.38;;
12990;SDS011;6560;57.692;11.958;2023-09-18T03:39:02;4.40;;;2.65;;
12990;SDS011;6560;57.692;11.958;2023-09-18T03:41:29;4.45;;;2.83;;
12990;SDS011;6560;57.692;11.958;2023-09-18T03:43:59;3.38;;;3.08;;
12990;SDS011;6560;57.692;11.958;2023-09-18T03:46:24;5.45;;;3.55;;
12990;SDS011;6560;57.692;11.958;2023-09-18T03:48:49;2.85;;;2.55;;
12990;SDS011;6560;57.692;11.958;2023-09-18T03:51:15;7.95;;;3.00;;
12990;SDS011;6560;57.692;11.958;2023-09-18T03:53:41;2.85;;;2.65;;
12990;SDS011;6560;57.692;11.958;2023-09-18T03:56:06;4.10;;;2.67;;
12990;SDS011;6560;57.692;11.958;2023-09-18T03:58:31;4.10;;;2.78;;
12990;SDS011;6560;57.692;11.958;2023-09-18T04:00:57;3.45;;;3.00;;
12990;SDS011;6560;57.692;11.958;2023-09-18T04:03:22;4.15;;;2.47;;
12990;SDS011;6560;57.692;11.958;2023-09-18T04:05:47;4.30;;;2.67;;
12990;SDS011;6560;57.692;11.958;2023-09-18T04:08:13;3.38;;;2.40;;
12990;SDS011;6560;57.692;11.958;2023-09-18T04:10:38;3.67;;;2.65;;
12990;SDS011;6560;57.692;11.958;2023-09-18T04:13:05;3.33;;;2.67;;
12990;SDS011;6560;57.692;11.958;2023-09-18T04:15:30;4.63;;;2.83;;
12990;SDS011;6560;57.692;11.958;2023-09-18T04:17:59;6.72;;;3.20;;
12990;SDS011;6560;57.692;11.958;2023-09-18T04:20:25;7.45;;;3.15;;
12990;SDS011;6560;57.692;11.958;2023-09-18T04:23:16;3.47;;;2.65;;
12990;SDS011;6560;57.692;11.958;2023-09-18T04:25:36;3.30;;;2.60;;
12990;SDS011;6560;57.692;11.958;2023-09-18T04:28:01;2.33;;;2.13;;
12990;SDS011;6560;57.692;11.958;2023-09-18T04:30:26;2.97;;;2.40;;
12990;SDS011;6560;57.692;11.958;2023-09-18T04:32:53;3.55;;;2.47;;
12990;SDS011;6560;57.692;11.958;2023-09-18T04:35:19;4.78;;;2.78;;
12990;SDS011;6560;57.692;11.958;2023-09-18T04:37:46;3.72;;;2.42;;
12990;SDS011;6560;57.692;11.958;2023-09-18T04:40:11;3.28;;;2.78;;
12990;SDS011;6560;57.692;11.958;2023-09-18T04:42:38;2.65;;;2.38;;
12990;SDS011;6560;57.692;11.958;2023-09-18T04:45:04;2.85;;;2.20;;
12990;SDS011;6560;57.692;11.958;2023-09-18T04:47:30;2.95;;;2.47;;
12990;SDS011;6560;57.692;11.958;2023-09-18T04:49:56;4.15;;;2.70;;
12990;SDS011;6560;57.692;11.958;2023-09-18T04:52:21;5.85;;;3.03;;
12990;SDS011;6560;57.692;11.958;2023-09-18T04:54:48;3.38;;;2.92;;
12990;SDS011;6560;57.692;11.958;2023-09-18T04:57:13;3.88;;;2.60;;
12990;SDS011;6560;57.692;11.958;2023-09-18T04:59:39;3.47;;;2.60;;
12990;SDS011;6560;57.692;11.958;2023-09-18T05:02:04;5.85;;;2.88;;
12990;SDS011;6560;57.692;11.958;2023-09-18T05:04:30;3.35;;;2.50;;
12990;SDS011;6560;57.692;11.958;2023-09-18T05:06:55;2.75;;;2.47;;
12990;SDS011;6560;57.692;11.958;2023-09-18T05:09:21;3.72;;;2.60;;
12990;SDS011;6560;57.692;11.958;2023-09-18T05:11:46;3.35;;;2.90;;
12990;SDS011;6560;57.692;11.958;2023-09-18T05:14:14;3.08;;;2.60;;
12990;SDS011;6560;57.692;11.958;2023-09-18T05:16:40;5.90;;;2.30;;
12990;SDS011;6560;57.692;11.958;2023-09-18T05:19:07;2.65;;;2.45;;
12990;SDS011;6560;57.692;11.958;2023-09-18T05:21:32;3.25;;;2.20;;
12990;SDS011;6560;57.692;11.958;2023-09-18T05:23:58;6.30;;;2.85;;
12990;SDS011;6560;57.692;11.958;2023-09-18T05:26:23;2.55;;;2.35;;
12990;SDS011;6560;57.692;11.958;2023-09-18T05:28:50;3.08;;;2.80;;
12990;SDS011;6560;57.692;11.958;2023-09-18T05:31:17;4.63;;;2.95;;
12990;SDS011;6560;57.692;11.958;2023-09-18T05:33:43;11.30;;;2.80;;
12990;SDS011;6560;57.692;11.958;2023-09-18T05:36:08;2.25;;;2.08;;
12990;SDS011;6560;57.692;11.958;2023-09-18T05:38:33;5.03;;;2.33;;
12990;SDS011;6560;57.692;11.958;2023-09-18T05:40:59;2.85;;;2.55;;
12990;SDS011;6560;57.692;11.958;2023-09-18T05:43:25;3.20;;;2.40;;
12990;SDS011;6560;57.692;11.958;2023-09-18T05:45:50;2.72;;;2.47;;
12990;SDS011;6560;57.692;11.958;2023-09-18T05:48:17;4.93;;;2.40;;
12990;SDS011;6560;57.692;11.958;2023-09-18T05:50:42;3.17;;;2.38;;
12990;SDS011;6560;57.692;11.958;2023-09-18T05:53:09;3.15;;;2.33;;
12990;SDS011;6560;57.692;11.958;2023-09-18T05:55:35;2.85;;;2.55;;
12990;SDS011;6560;57.692;11.958;2023-09-18T05:58:00;4.43;;;2.13;;
12990;SDS011;6560;57.692;11.958;2023-09-18T06:00:26;3.28;;;2.22;;
12990;SDS011;6560;57.692;11.958;2023-09-18T06:02:52;4.70;;;2.53;;
12990;SDS011;6560;57.692;11.958;2023-09-18T06:05:17;3.70;;;2.63;;
12990;SDS011;6560;57.692;11.958;2023-09-18T06:07:46;5.22;;;2.60;;
12990;SDS011;6560;57.692;11.958;2023-09-18T06:10:11;2.05;;;1.83;;
12990;SDS011;6560;57.692;11.958;2023-09-18T06:12:40;4.80;;;2.15;;
12990;SDS011;6560;57.692;11.958;2023-09-18T06:15:07;3.08;;;2.47;;
12990;SDS011;6560;57.692;11.958;2023-09-18T06:17:37;2.28;;;2.00;;
12990;SDS011;6560;57.692;11.958;2023-09-18T06:20:04;4.32;;;2.22;;
12990;SDS011;6560;57.692;11.958;2023-09-18T06:22:30;2.20;;;2.00;;
12990;SDS011;6560;57.692;11.958;2023-09-18T06:24:55;3.55;;;2.40;;
12990;SDS011;6560;57.692;11.958;2023-09-18T06:27:21;2.53;;;2.33;;
12990;SDS011;6560;57.692;11.958;2023-09-18T06:29:47;3.28;;;2.08;;
12990;SDS011;6560;57.692;11.958;2023-09-18T06:32:12;6.68;;;2.40;;
12990;SDS011;6560;57.692;11.958;2023-09-18T06:34:37;3.72;;;2.20;;
12990;SDS011;6560;57.692;11.958;2023-09-18T06:37:03;4.68;;;2.42;;
12990;SDS011;6560;57.692;11.958;2023-09-18T06:39:29;4.15;;;2.15;;
12990;SDS011;6560;57.692;11.958;2023-09-18T06:42:01;3.33;;;2.67;;
12990;SDS011;6560;57.692;11.958;2023-09-18T06:44:27;3.97;;;2.40;;
12990;SDS011;6560;57.692;11.958;2023-09-18T06:46:53;3.70;;;2.33;;
12990;SDS011;6560;57.692;11.958;2023-09-18T06:49:18;4.30;;;2.58;;
12990;SDS011;6560;57.692;11.958;2023-09-18T06:51:44;4.93;;;2.38;;
12990;SDS011;6560;57.692;11.958;2023-09-18T06:54:09;3.70;;;2.10;;
12990;SDS011;6560;57.692;11.958;2023-09-18T06:56:35;4.18;;;2.15;;
12990;SDS011;6560;57.692;11.958;2023-09-18T06:59:00;3.90;;;1.92;;
12990;SDS011;6560;57.692;11.958;2023-09-18T07:01:27;3.33;;;2.28;;
12990;SDS011;6560;57.692;11.958;2023-09-18T07:03:53;4.00;;;2.25;;
12990;SDS011;6560;57.692;11.958;2023-09-18T07:06:22;2.70;;;2.42;;
12990;SDS011;6560;57.692;11.958;2023-09-18T07:08:47;5.93;;;2.50;;
12990;SDS011;6560;57.692;11.958;2023-09-18T07:11:17;5.57;;;2.10;;
12990;SDS011;6560;57.692;11.958;2023-09-18T07:13:43;3.08;;;2.15;;
12990;SDS011;6560;57.692;11.958;2023-09-18T07:16:09;3.80;;;2.15;;
12990;SDS011;6560;57.692;11.958;2023-09-18T07:18:35;4.82;;;2.60;;
12990;SDS011;6560;57.692;11.958;2023-09-18T07:21:01;4.72;;;2.58;;
12990;SDS011;6560;57.692;11.958;2023-09-18T07:23:26;4.53;;;2.10;;
12990;SDS011;6560;57.692;11.958;2023-09-18T07:25:52;1.77;;;1.67;;
12990;SDS011;6560;57.692;11.958;2023-09-18T07:28:17;3.65;;;2.20;;
12990;SDS011;6560;57.692;11.958;2023-09-18T07:30:44;3.72;;;1.67;;
12990;SDS011;6560;57.692;11.958;2023-09-18T07:33:10;4.80;;;1.80;;
12990;SDS011;6560;57.692;11.958;2023-09-18T07:35:37;3.90;;;2.15;;
12990;SDS011;6560;57.692;11.958;2023-09-18T07:38:02;2.22;;;2.00;;
12990;SDS011;6560;57.692;11.958;2023-09-18T07:40:28;4.40;;;2.33;;
12990;SDS011;6560;57.692;11.958;2023-09-18T07:42:53;1.92;;;1.67;;
12990;SDS011;6560;57.692;11.958;2023-09-18T07:45:19;3.35;;;2.05;;
12990;SDS011;6560;57.692;11.958;2023-09-18T07:47:44;3.10;;;2.03;;
12990;SDS011;6560;57.692;11.958;2023-09-18T07:50:12;3.15;;;2.25;;
12990;SDS011;6560;57.692;11.958;2023-09-18T07:52:42;2.95;;;1.83;;
12990;SDS011;6560;57.692;11.958;2023-09-18T07:55:08;6.10;;;2.40;;
12990;SDS011;6560;57.692;11.958;2023-09-18T07:57:33;2.78;;;1.95;;
12990;SDS011;6560;57.692;11.958;2023-09-18T07:59:59;3.60;;;2.22;;
12990;SDS011;6560;57.692;11.958;2023-09-18T08:02:31;5.88;;;2.92;;
12990;SDS011;6560;57.692;11.958;2023-09-18T08:04:56;4.00;;;2.00;;
12990;SDS011;6560;57.692;11.958;2023-09-18T08:07:22;3.95;;;2.00;;
12990;SDS011;6560;57.692;11.958;2023-09-18T08:09:47;1.77;;;1.67;;
12990;SDS011;6560;57.692;11.958;2023-09-18T08:12:19;2.75;;;2.10;;
12990;SDS011;6560;57.692;11.958;2023-09-18T08:14:45;3.58;;;1.92;;
12990;SDS011;6560;57.692;11.958;2023-09-18T08:17:10;3.00;;;2.40;;
12990;SDS011;6560;57.692;11.958;2023-09-18T08:19:35;3.22;;;1.83;;
12990;SDS011;6560;57.692;11.958;2023-09-18T08:22:02;3.75;;;2.10;;
12990;SDS011;6560;57.692;11.958;2023-09-18T08:24:29;2.80;;;1.77;;
12990;SDS011;6560;57.692;11.958;2023-09-18T08:26:54;4.32;;;1.80;;
12990;SDS011;6560;57.692;11.958;2023-09-18T08:29:21;2.67;;;1.92;;
12990;SDS011;6560;57.692;11.958;2023-09-18T08:31:48;3.90;;;1.77;;
12990;SDS011;6560;57.692;11.958;2023-09-18T08:34:14;4.97;;;2.55;;
12990;SDS011;6560;57.692;11.958;2023-09-18T08:36:39;4.40;;;2.17;;
12990;SDS011;6560;57.692;11.958;2023-09-18T08:39:05;5.63;;;2.13;;
12990;SDS011;6560;57.692;11.958;2023-09-18T08:41:33;5.30;;;2.22;;
12990;SDS011;6560;57.692;11.958;2023-09-18T08:44:20;4.55;;;2.50;;
12990;SDS011;6560;57.692;11.958;2023-09-18T08:46:47;3.70;;;2.35;;
12990;SDS011;6560;57.692;11.958;2023-09-18T08:49:12;4.63;;;2.22;;
12990;SDS011;6560;57.692;11.958;2023-09-18T08:51:38;2.67;;;1.83;;
12990;SDS011;6560;57.692;11.958;2023-09-18T08:54:05;4.25;;;2.25;;
12990;SDS011;6560;57.692;11.958;2023-09-18T08:56:32;2.63;;;2.22;;
12990;SDS011;6560;57.692;11.958;2023-09-18T08:58:59;4.32;;;2.83;;
12990;SDS011;6560;57.692;11.958;2023-09-18T09:01:24;3.08;;;2.70;;
12990;SDS011;6560;57.692;11.958;2023-09-18T09:03:50;4.55;;;2.80;;
12990;SDS011;6560;57.692;11.958;2023-09-18T09:06:16;5.45;;;2.88;;
12990;SDS011;6560;57.692;11.958;2023-09-18T09:08:41;5.38;;;2.75;;
12990;SDS011;6560;57.692;11.958;2023-09-18T09:11:07;4.53;;;2.92;;
12990;SDS011;6560;57.692;11.958;2023-09-18T09:13:32;2.55;;;2.35;;
12990;SDS011;6560;57.692;11.958;2023-09-18T09:15:58;2.88;;;2.40;;
12990;SDS011;6560;57.692;11.958;2023-09-18T09:18:24;7.28;;;3.83;;
12990;SDS011;6560;57.692;11.958;2023-09-18T09:23:19;5.00;;;2.53;;
12990;SDS011;6560;57.692;11.958;2023-09-18T09:25:44;5.35;;;2.88;;
12990;SDS011;6560;57.692;11.958;2023-09-18T09:28:09;4.43;;;3.63;;
12990;SDS011;6560;57.692;11.958;2023-09-18T09:30:35;6.60;;;4.07;;
12990;SDS011;6560;57.692;11.958;2023-09-18T09:33:04;3.55;;;2.85;;
12990;SDS011;6560;57.692;11.958;2023-09-18T09:35:33;4.35;;;3.45;;
12990;SDS011;6560;57.692;11.958;2023-09-18T09:38:01;3.60;;;3.22;;
12990;SDS011;6560;57.692;11.958;2023-09-18T09:40:26;3.47;;;3.17;;
12990;SDS011;6560;57.692;11.958;2023-09-18T09:42:57;4.28;;;3.20;;
12990;SDS011;6560;57.692;11.958;2023-09-18T09:45:26;4.95;;;3.50;;
12990;SDS011;6560;57.692;11.958;2023-09-18T09:47:53;3.72;;;3.42;;
12990;SDS011;6560;57.692;11.958;2023-09-18T09:50:19;5.07;;;3.33;;
12990;SDS011;6560;57.692;11.958;2023-09-18T09:52:47;4.50;;;3.65;;
12990;SDS011;6560;57.692;11.958;2023-09-18T09:55:30;5.82;;;3.83;;
12990;SDS011;6560;57.692;11.958;2023-09-18T09:57:56;5.53;;;3.75;;
12990;SDS011;6560;57.692;11.958;2023-09-18T10:03:03;3.80;;;3.22;;
12990;SDS011;6560;57.692;11.958;2023-09-18T10:05:30;7.03;;;4.53;;
12990;SDS011;6560;57.692;11.958;2023-09-18T10:07:59;5.20;;;3.90;;
12990;SDS011;6560;57.692;11.958;2023-09-18T10:10:29;4.97;;;3.70;;
12990;SDS011;6560;57.692;11.958;2023-09-18T10:12:54;4.28;;;3.72;;
12990;SDS011;6560;57.692;11.958;2023-09-18T10:15:20;5.40;;;3.83;;
12990;SDS011;6560;57.692;11.958;2023-09-18T10:17:49;5.75;;;4.40;;
12990;SDS011;6560;57.692;11.958;2023-09-18T10:20:17;3.35;;;3.05;;
12990;SDS011;6560;57.692;11.958;2023-09-18T10:22:46;6.00;;;4.07;;
12990;SDS011;6560;57.692;11.958;2023-09-18T10:25:29;4.70;;;4.28;;
12990;SDS011;6560;57.692;11.958;2023-09-18T10:27:57;5.63;;;4.20;;
12990;SDS011;6560;57.692;11.958;2023-09-18T10:30:28;5.45;;;4.10;;
12990;SDS011;6560;57.692;11.958;2023-09-18T10:32:54;5.13;;;4.43;;
12990;SDS011;6560;57.692;11.958;2023-09-18T10:35:21;4.20;;;3.80;;
12990;SDS011;6560;57.692;11.958;2023-09-18T10:37:48;5.43;;;3.92;;
12990;SDS011;6560;57.692;11.958;2023-09-18T10:40:16;5.32;;;4.05;;
12990;SDS011;6560;57.692;11.958;2023-09-18T10:42:43;5.53;;;3.60;;
12990;SDS011;6560;57.692;11.958;2023-09-18T10:45:10;6.75;;;4.22;;
12990;SDS011;6560;57.692;11.958;2023-09-18T10:47:39;8.05;;;4.55;;
12990;SDS011;6560;57.692;11.958;2023-09-18T10:50:06;5.20;;;4.00;;
12990;SDS011;6560;57.692;11.958;2023-09-18T10:52:32;6.78;;;3.90;;
12990;SDS011;6560;57.692;11.958;2023-09-18T10:54:58;5.88;;;4.57;;
12990;SDS011;6560;57.692;11.958;2023-09-18T10:57:23;8.93;;;4.80;;
12990;SDS011;6560;57.692;11.958;2023-09-18T10:59:48;4.28;;;3.58;;
12990;SDS011;6560;57.692;11.958;2023-09-18T11:02:14;5.50;;;4.60;;
12990;SDS011;6560;57.692;11.958;2023-09-18T11:04:43;4.75;;;3.42;;
12990;SDS011;6560;57.692;11.958;2023-09-18T11:07:22;7.22;;;5.03;;
12990;SDS011;6560;57.692;11.958;2023-09-18T11:09:49;4.20;;;3.78;;
12990;SDS011;6560;57.692;11.958;2023-09-18T11:12:16;6.85;;;4.43;;
12990;SDS011;6560;57.692;11.958;2023-09-18T11:17:31;6.90;;;4.93;;
12990;SDS011;6560;57.692;11.958;2023-09-18T11:20:04;5.38;;;3.90;;
12990;SDS011;6560;57.692;11.958;2023-09-18T11:22:34;4.38;;;3.97;;
12990;SDS011;6560;57.692;11.958;2023-09-18T11:27:52;6.97;;;4.53;;
12990;SDS011;6560;57.692;11.958;2023-09-18T11:30:19;5.93;;;4.63;;
12990;SDS011;6560;57.692;11.958;2023-09-18T11:32:44;5.82;;;4.22;;
12990;SDS011;6560;57.692;11.958;2023-09-18T11:35:12;6.00;;;4.20;;
12990;SDS011;6560;57.692;11.958;2023-09-18T11:37:38;5.82;;;5.03;;
12990;SDS011;6560;57.692;11.958;2023-09-18T11:40:05;5.88;;;4.18;;
12990;SDS011;6560;57.692;11.958;2023-09-18T11:42:33;6.15;;;5.10;;
12990;SDS011;6560;57.692;11.958;2023-09-18T11:44:58;7.03;;;5.25;;
12990;SDS011;6560;57.692;11.958;2023-09-18T11:47:25;6.70;;;4.55;;
12990;SDS011;6560;57.692;11.958;2023-09-18T11:49:55;6.07;;;4.63;;
12990;SDS011;6560;57.692;11.958;2023-09-18T11:52:24;6.20;;;5.07;;
12990;SDS011;6560;57.692;11.958;2023-09-18T11:54:50;9.57;;;5.85;;
12990;SDS011;6560;57.692;11.958;2023-09-18T11:57:17;5.43;;;4.80;;
12990;SDS011;6560;57.692;11.958;2023-09-18T11:59:42;6.18;;;5.43;;
12990;SDS011;6560;57.692;11.958;2023-09-18T12:02:09;5.38;;;4.80;;
12990;SDS011;6560;57.692;11.958;2023-09-18T12:04:35;7.25;;;5.15;;
12990;SDS011;6560;57.692;11.958;2023-09-18T12:07:05;6.45;;;5.45;;
12990;SDS011;6560;57.692;11.958;2023-09-18T12:09:31;5.13;;;4.70;;
12990;SDS011;6560;57.692;11.958;2023-09-18T12:11:57;7.65;;;5.65;;
12990;SDS011;6560;57.692;11.958;2023-09-18T12:14:23;6.28;;;5.53;;
12990;SDS011;6560;57.692;11.958;2023-09-18T12:16:49;11.13;;;6.00;;
12990;SDS011;6560;57.692;11.958;2023-09-18T12:19:18;6.13;;;5.18;;
12990;SDS011;6560;57.692;11.958;2023-09-18T12:21:48;5.80;;;5.20;;
12990;SDS011;6560;57.692;11.958;2023-09-18T12:24:14;5.72;;;5.18;;
12990;SDS011;6560;57.692;11.958;2023-09-18T12:26:40;8.90;;;6.00;;
12990;SDS011;6560;57.692;11.958;2023-09-18T12:29:07;6.90;;;5.07;;
12990;SDS011;6560;57.692;11.958;2023-09-18T12:31:32;6.63;;;6.03;;
12990;SDS011;6560;57.692;11.958;2023-09-18T12:34:00;6.65;;;5.45;;
12990;SDS011;6560;57.692;11.958;2023-09-18T12:36:25;10.43;;;6.18;;
12990;SDS011;6560;57.692;11.958;2023-09-18T12:38:57;7.28;;;5.35;;
12990;SDS011;6560;57.692;11.958;2023-09-18T12:41:25;6.70;;;5.72;;
12990;SDS011;6560;57.692;11.958;2023-09-18T12:43:53;7.03;;;5.78;;
12990;SDS011;6560;57.692;11.958;2023-09-18T12:46:20;7.20;;;6.40;;
12990;SDS011;6560;57.692;11.958;2023-09-18T12:48:47;6.15;;;5.53;;
12990;SDS011;6560;57.692;11.958;2023-09-18T12:51:13;5.40;;;4.82;;
12990;SDS011;6560;57.692;11.958;2023-09-18T12:53:39;7.28;;;6.20;;
12990;SDS011;6560;57.692;11.958;2023-09-18T12:56:10;8.38;;;6.60;;
12990;SDS011;6560;57.692;11.958;2023-09-18T12:58:35;8.02;;;7.00;;
12990;SDS011;6560;57.692;11.958;2023-09-18T13:01:04;7.97;;;6.60;;
12990;SDS011;6560;57.692;11.958;2023-09-18T13:03:33;10.70;;;7.07;;
12990;SDS011;6560;57.692;11.958;2023-09-18T13:06:09;9.05;;;6.97;;
12990;SDS011;6560;57.692;11.958;2023-09-18T13:08:35;7.85;;;7.20;;
12990;SDS011;6560;57.692;11.958;2023-09-18T13:11:01;7.80;;;6.80;;
12990;SDS011;6560;57.692;11.958;2023-09-18T13:13:29;7.13;;;6.28;;
12990;SDS011;6560;57.692;11.958;2023-09-18T13:15:59;9.60;;;7.28;;
12990;SDS011;6560;57.692;11.958;2023-09-18T13:18:25;10.50;;;7.22;;
12990;SDS011;6560;57.692;11.958;2023-09-18T13:20:51;8.55;;;6.50;;
12990;SDS011;6560;57.692;11.958;2023-09-18T13:23:17;7.75;;;6.95;;
12990;SDS011;6560;57.692;11.958;2023-09-18T13:25:43;8.45;;;6.28;;
12990;SDS011;6560;57.692;11.958;2023-09-18T13:28:12;7.80;;;6.78;;
12990;SDS011;6560;57.692;11.958;2023-09-18T13:30:39;8.40;;;7.28;;
12990;SDS011;6560;57.692;11.958;2023-09-18T13:33:09;8.35;;;7.60;;
12990;SDS011;6560;57.692;11.958;2023-09-18T13:35:36;10.15;;;7.55;;
12990;SDS011;6560;57.692;11.958;2023-09-18T13:38:05;9.45;;;8.52;;
12990;SDS011;6560;57.692;11.958;2023-09-18T13:40:31;7.93;;;7.13;;
12990;SDS011;6560;57.692;11.958;2023-09-18T13:42:58;10.88;;;7.53;;
12990;SDS011;6560;57.692;11.958;2023-09-18T13:45:23;8.05;;;7.25;;
12990;SDS011;6560;57.692;11.958;2023-09-18T13:47:49;9.52;;;7.50;;
12990;SDS011;6560;57.692;11.958;2023-09-18T13:50:15;8.35;;;7.38;;
12990;SDS011;6560;57.692;11.958;2023-09-18T13:52:41;8.13;;;7.32;;
12990;SDS011;6560;57.692;11.958;2023-09-18T13:55:06;9.93;;;7.25;;
12990;SDS011;6560;57.692;11.958;2023-09-18T13:57:32;8.60;;;7.47;;
12990;SDS011;6560;57.692;11.958;2023-09-18T13:59:59;12.73;;;8.18;;
12990;SDS011;6560;57.692;11.958;2023-09-18T14:02:25;9.73;;;8.07;;
12990;SDS011;6560;57.692;11.958;2023-09-18T14:04:55;7.72;;;6.82;;
12990;SDS011;6560;57.692;11.958;2023-09-18T14:07:21;8.77;;;7.80;;
12990;SDS011;6560;57.692;11.958;2023-09-18T14:09:48;7.82;;;7.03;;
12990;SDS011;6560;57.692;11.958;2023-09-18T14:12:14;9.85;;;7.40;;
12990;SDS011;6560;57.692;11.958;2023-09-18T14:14:40;7.28;;;6.60;;
12990;SDS011;6560;57.692;11.958;2023-09-18T14:17:07;8.30;;;7.30;;
12990;SDS011;6560;57.692;11.958;2023-09-18T14:19:33;8.23;;;7.15;;
12990;SDS011;6560;57.692;11.958;2023-09-18T14:21:59;9.60;;;7.80;;
12990;SDS011;6560;57.692;11.958;2023-09-18T14:24:29;8.15;;;7.20;;
12990;SDS011;6560;57.692;11.958;2023-09-18T14:26:54;8.23;;;7.35;;
12990;SDS011;6560;57.692;11.958;2023-09-18T14:29:20;8.07;;;7.28;;
12990;SDS011;6560;57.692;11.958;2023-09-18T14:31:45;8.07;;;6.68;;
12990;SDS011;6560;57.692;11.958;2023-09-18T14:34:12;10.00;;;7.35;;
12990;SDS011;6560;57.692;11.958;2023-09-18T14:36:37;9.32;;;7.63;;
12990;SDS011;6560;57.692;11.958;2023-09-18T14:39:06;7.40;;;6.70;;
12990;SDS011;6560;57.692;11.958;2023-09-18T14:41:37;7.30;;;6.60;;
12990;SDS011;6560;57.692;11.958;2023-09-18T14:44:04;9.15;;;7.13;;
12990;SDS011;6560;57.692;11.958;2023-09-18T14:46:30;7.63;;;6.97;;
12990;SDS011;6560;57.692;11.958;2023-09-18T14:48:58;10.13;;;7.55;;
12990;SDS011;6560;57.692;11.958;2023-09-18T14:51:24;7.93;;;7.13;;
12990;SDS011;6560;57.692;11.958;2023-09-18T14:53:51;7.03;;;6.38;;
12990;SDS011;6560;57.692;11.958;2023-09-18T14:56:16;8.75;;;6.85;;
12990;SDS011;6560;57.692;11.958;2023-09-18T14:58:42;9.55;;;7.45;;